Terminal Aerodrome Forecast
Issued by NWS Greer, SC

Home | Current Version | Previous Version | Text Only | Print | Product List | Glossary On
Versions: 1 2 3 4 5 6 7 8 9 10 11 12 13 14 15 16 17
000
FTUS42 KGSP 212340
TAFGSP
TAF
KGSP 212340Z 2200/2224 05006KT P6SM OVC026
     FM220400 05006KT 6SM -RA OVC017
      TEMPO 2205/2208 5SM -RA BR BKN008 OVC015
     FM220800 04008KT 5SM -RA OVC007
     FM221500 04008KT 6SM BR OVC007=

USA.gov is the U.S. government's official web portal to all federal, state and local government web resources and services.